Time;durP1;ratioP1;P1;durP2;ratioP2;P2;SDS_P1;SDS_P2;PMS_P1;PMS_P2;Temp;Humidity;BMP_temperature;BMP_pressure;BME280_temperature;BME280_humidity;BME280_pressure;Samples;Min_cycle;Max_cycle;Signal;HPM_P1;HPM_P2
2021/04/21 00:02:22;;;;;;;9.00;2.90;;;;;;;12.07;46.30;101214.31;143741;591;46008;-76
2021/04/21 00:04:51;;;;;;;6.20;2.70;;;;;;;12.14;46.17;101216.75;143741;609;46018;-76
2021/04/21 00:07:21;;;;;;;6.00;2.60;;;;;;;12.20;46.48;101220.97;143740;598;46020;-75
2021/04/21 00:09:51;;;;;;;8.80;3.42;;;;;;;12.26;46.03;101227.84;143736;564;47020;-77
2021/04/21 00:12:19;;;;;;;5.28;2.70;;;;;;;12.26;46.01;101231.38;143743;586;46008;-77
2021/04/21 00:14:47;;;;;;;5.72;3.00;;;;;;;12.27;46.00;101237.47;143741;589;46020;-76
2021/04/21 00:17:15;;;;;;;4.87;2.60;;;;;;;12.27;46.14;101237.47;143742;565;47006;-75
2021/04/21 00:19:44;;;;;;;6.43;2.50;;;;;;;12.26;45.82;101233.13;143738;609;46023;-74
2021/04/21 00:22:15;;;;;;;4.87;2.75;;;;;;;12.22;46.19;101229.72;143741;569;46916;-76
2021/04/21 00:24:44;;;;;;;4.53;2.58;;;;;;;12.14;46.40;101223.78;143740;592;46021;-75
2021/04/21 00:27:21;;;;;;;5.12;2.53;;;;;;;12.06;46.47;101234.50;143742;590;46008;-74
2021/04/21 00:29:58;;;;;;;4.28;2.37;;;;;;;12.01;46.28;101229.38;143739;586;46018;-76
2021/04/21 00:32:27;;;;;;;4.05;2.50;;;;;;;11.99;46.56;101225.91;143740;593;46008;-75
2021/04/21 00:34:57;;;;;;;4.30;2.30;;;;;;;11.97;46.16;101225.09;143739;618;46020;-71
2021/04/21 00:37:30;;;;;;;4.75;2.30;;;;;;;11.97;45.69;101224.22;143741;606;46029;-70
2021/04/21 00:39:59;;;;;;;6.85;2.55;;;;;;;11.98;46.17;101220.69;143739;586;47019;-69
2021/04/21 00:42:59;;;;;;;4.15;1.90;;;;;;;12.01;44.72;101236.38;143741;591;46008;-75
2021/04/21 00:46:08;;;;;;;4.82;2.37;;;;;;;12.02;44.54;101215.28;143739;612;46020;-70
2021/04/21 00:49:07;;;;;;;3.60;2.10;;;;;;;12.07;44.77;101219.56;143744;601;46008;-67
2021/04/21 00:51:58;;;;;;;5.78;2.50;;;;;;;12.07;44.79;101220.44;143736;618;48020;-71
2021/04/21 00:55:06;;;;;;;5.22;2.33;;;;;;;12.02;45.25;101219.69;143739;594;46010;-72
2021/04/21 00:58:09;;;;;;;4.97;2.58;;;;;;;11.98;44.94;101220.69;143741;651;46008;-72
2021/04/21 01:00:43;;;;;;;3.65;1.98;;;;;;;11.94;46.02;101211.09;143741;579;47010;-73
2021/04/21 01:03:16;;;;;;;6.10;2.33;;;;;;;11.91;46.09;101222.56;143741;581;46012;-72
2021/04/21 01:05:57;;;;;;;4.80;2.20;;;;;;;11.90;46.36;101219.97;143742;600;46010;-72
2021/04/21 01:08:29;;;;;;;3.97;2.10;;;;;;;11.87;46.20;101223.56;143742;571;46008;-73
2021/04/21 01:12:04;;;;;;;5.93;2.50;;;;;;;11.86;45.28;101221.81;143741;628;46011;-72
2021/04/21 01:14:38;;;;;;;4.37;2.10;;;;;;;11.84;46.10;101221.84;143739;588;46018;-72
2021/04/21 01:17:10;;;;;;;6.37;2.30;;;;;;;11.85;46.07;101225.34;143742;579;46010;-73
2021/04/21 01:20:30;;;;;;;4.45;2.20;;;;;;;11.89;45.58;101227.03;143743;627;46018;-71
2021/04/21 01:23:55;;;;;;;4.70;2.10;;;;;;;11.91;44.89;101213.81;143743;573;46008;-71
2021/04/21 01:27:01;;;;;;;5.70;2.50;;;;;;;11.96;45.00;101218.09;143742;615;46010;-70
2021/04/21 01:29:49;;;;;;;3.55;2.12;;;;;;;11.98;45.15;101223.31;143741;624;46008;-70
2021/04/21 01:32:24;;;;;;;4.00;2.17;;;;;;;11.97;46.22;101224.22;143743;570;46010;-71
2021/04/21 01:34:54;;;;;;;3.80;2.10;;;;;;;11.97;46.39;101225.09;143744;601;47006;-70
2021/04/21 01:37:35;;;;;;;4.18;2.40;;;;;;;12.02;45.18;101222.34;143741;605;46031;-68
2021/04/21 01:40:23;;;;;;;4.18;2.40;;;;;;;12.04;45.13;101222.28;143742;628;46010;-68
2021/04/21 01:42:55;;;;;;;3.97;2.20;;;;;;;12.05;45.68;101231.91;143742;603;47008;-72
2021/04/21 01:45:27;;;;;;;4.62;2.03;;;;;;;12.10;45.43;101245.84;143742;573;47008;-71
2021/04/21 01:47:59;;;;;;;4.62;2.70;;;;;;;12.13;45.70;101233.44;143742;635;46019;-72
2021/04/21 01:50:27;;;;;;;5.82;2.85;;;;;;;12.12;45.80;101244.00;143742;571;47008;-69
2021/04/21 01:53:37;;;;;;;4.70;2.75;;;;;;;12.12;44.65;101233.47;143742;653;46008;-69
2021/04/21 01:56:37;;;;;;;6.50;3.10;;;;;;;12.22;45.55;101242.00;143742;577;47008;-70
2021/04/21 01:59:49;;;;;;;4.65;2.70;;;;;;;12.26;44.63;101239.25;143740;676;46022;-69
2021/04/21 02:02:33;;;;;;;6.32;2.83;;;;;;;12.28;45.32;101239.22;143741;577;46913;-71
2021/04/21 02:05:59;;;;;;;7.12;2.97;;;;;;;12.27;44.53;101233.06;143741;654;46020;-71
2021/04/21 02:09:00;;;;;;;5.25;2.40;;;;;;;12.13;44.99;101246.59;143743;585;46009;-74
2021/04/21 02:11:36;;;;;;;5.90;2.40;;;;;;;12.05;45.49;101247.72;143742;572;45910;-74
2021/04/21 02:14:55;;;;;;;5.03;2.20;;;;;;;11.89;45.77;101242.81;143742;580;46008;-74
2021/04/21 02:17:56;;;;;;;6.07;2.37;;;;;;;11.80;45.54;101243.87;143745;571;46008;-74
2021/04/21 02:21:12;;;;;;;6.10;2.30;;;;;;;11.68;45.21;101244.19;143744;593;46008;-75
2021/04/21 02:23:54;;;;;;;5.03;2.58;;;;;;;11.61;46.09;101247.88;143740;612;46022;-70
2021/04/21 02:26:47;;;;;;;6.45;2.40;;;;;;;11.55;45.65;101255.91;143741;586;46913;-74
2021/04/21 02:29:32;;;;;;;4.93;2.67;;;;;;;11.46;46.22;101254.34;143741;630;46008;-77
2021/04/21 02:32:59;;;;;;;7.10;2.90;;;;;;;11.35;45.86;101252.81;143742;581;46023;-71
2021/04/21 02:35:40;;;;;;;5.95;3.00;;;;;;;11.31;46.73;101255.56;143739;581;46020;-70
2021/04/21 02:38:52;;;;;;;6.22;3.05;;;;;;;11.25;45.97;101258.31;143744;589;45018;-70
2021/04/21 02:42:11;;;;;;;7.18;2.85;;;;;;;11.15;47.17;101261.16;143741;573;46020;-69
2021/04/21 02:45:46;;;;;;;7.10;3.22;;;;;;;10.96;46.45;101247.56;143742;582;47010;-70
2021/04/21 02:48:52;;;;;;;5.50;2.80;;;;;;;10.89;47.17;101256.44;143743;580;46010;-70
2021/04/21 02:52:06;;;;;;;6.53;2.87;;;;;;;10.84;46.22;101263.56;143743;592;46008;-69
2021/04/21 02:55:23;;;;;;;5.70;2.60;;;;;;;10.75;46.67;101255.88;143742;595;46008;-69
2021/04/21 02:58:19;;;;;;;5.72;2.97;;;;;;;10.67;47.08;101253.38;143741;648;46018;-69
2021/04/21 03:01:28;;;;;;;6.03;2.92;;;;;;;10.61;46.90;101257.00;143742;624;46022;-70
2021/04/21 03:04:41;;;;;;;7.32;2.85;;;;;;;10.46;46.79;101254.69;143742;650;46010;-70
2021/04/21 03:07:52;;;;;;;6.75;2.80;;;;;;;10.44;48.10;101259.09;143742;594;46020;-70
2021/04/21 03:10:21;;;;;;;9.07;2.72;;;;;;;10.36;48.78;101259.25;143745;589;46008;-73
2021/04/21 03:13:16;;;;;;;6.43;2.97;;;;;;;10.27;47.63;101265.47;143739;636;47022;-72
2021/04/21 03:15:50;;;;;;;8.18;2.67;;;;;;;10.25;48.55;101266.41;143742;587;46010;-69
2021/04/21 03:18:22;;;;;;;7.68;2.72;;;;;;;10.23;48.16;101269.06;143741;570;46020;-69
2021/04/21 03:21:16;;;;;;;8.77;3.08;;;;;;;10.22;47.85;101271.69;143743;630;47028;-69
2021/04/21 03:23:46;;;;;;;7.75;3.10;;;;;;;10.16;48.56;101270.91;143741;616;46022;-70
2021/04/21 03:26:14;;;;;;;7.45;2.90;;;;;;;10.12;48.79;101273.63;143740;584;47008;-73
2021/04/21 03:28:48;;;;;;;9.05;3.40;;;;;;;10.07;49.09;101273.69;143745;570;45908;-71
2021/04/21 03:31:16;;;;;;;;;;;;;;;10.03;46.61;101279.88;143749;971;46009;-71
2021/04/21 03:34:00;;;;;;;8.82;2.80;;;;;;;10.00;47.96;101272.06;143750;572;47011;-70
2021/04/21 03:36:29;;;;;;;6.05;3.22;;;;;;;10.01;49.20;101280.81;143742;570;47012;-70
2021/04/21 03:38:57;;;;;;;7.47;3.20;;;;;;;10.03;49.23;101284.28;143740;592;47010;-71
2021/04/21 03:41:24;;;;;;;10.13;3.42;;;;;;;10.03;49.43;101285.13;143741;589;46018;-71
2021/04/21 03:43:52;;;;;;;7.97;3.22;;;;;;;10.04;49.43;101291.25;143742;569;46012;-71
2021/04/21 03:46:20;;;;;;;11.23;3.53;;;;;;;10.02;48.92;101290.41;143745;617;46011;-70
2021/04/21 03:48:48;;;;;;;10.20;3.50;;;;;;;10.03;49.41;101300.00;143742;583;46010;-76
2021/04/21 03:51:17;;;;;;;9.75;3.60;;;;;;;9.98;48.86;101293.09;143742;700;47012;-77
2021/04/21 03:53:44;;;;;;;7.62;3.75;;;;;;;9.98;49.30;101293.09;143740;590;47022;-75
2021/04/21 03:56:22;;;;;;;9.57;3.25;;;;;;;9.99;48.47;101307.06;143742;621;46010;-75
2021/04/21 03:58:52;;;;;;;8.35;3.35;;;;;;;9.98;49.47;101313.22;143742;658;46020;-75
2021/04/21 04:01:25;;;;;;;11.00;3.53;;;;;;;9.97;49.59;101307.09;143743;573;46019;-72
2021/04/21 04:03:59;;;;;;;9.63;3.60;;;;;;;9.96;48.87;101313.25;143740;583;48022;-73
2021/04/21 04:06:42;;;;;;;9.27;3.92;;;;;;;9.97;48.24;101314.09;143742;586;46010;-74
2021/04/21 04:09:11;;;;;;;9.73;4.32;;;;;;;9.97;49.30;101321.97;143742;564;47012;-72
2021/04/21 04:11:52;;;;;;;10.18;4.10;;;;;;;9.97;47.97;101325.44;143743;598;47012;-70
2021/04/21 04:14:29;;;;;;;13.68;4.12;;;;;;;9.95;49.21;101316.75;143743;584;46012;-70
2021/04/21 04:16:59;;;;;;;12.05;4.20;;;;;;;9.91;49.21;101320.31;143741;569;46018;-71
2021/04/21 04:19:28;;;;;;;8.25;4.15;;;;;;;9.92;49.34;101327.31;143743;563;46020;-71
2021/04/21 04:22:09;;;;;;;10.98;3.83;;;;;;;9.95;49.85;101326.38;143743;570;46011;-74
2021/04/21 04:24:50;;;;;;;12.82;4.00;;;;;;;9.95;48.70;101335.13;143742;583;46023;-72
2021/04/21 04:27:23;;;;;;;7.95;3.90;;;;;;;10.00;48.82;101324.53;143739;580;46018;-70
2021/04/21 04:29:53;;;;;;;13.00;4.85;;;;;;;10.04;49.33;101325.37;143745;648;46010;-72
2021/04/21 04:32:25;;;;;;;11.48;4.28;;;;;;;10.10;48.68;101326.13;143744;624;47012;-73
2021/04/21 04:34:59;;;;;;;10.65;4.05;;;;;;;10.16;49.27;101326.03;143740;583;46018;-71
2021/04/21 04:37:28;;;;;;;18.70;4.80;;;;;;;10.27;49.41;101322.38;143740;639;46916;-71
2021/04/21 04:39:55;;;;;;;11.95;4.15;;;;;;;10.35;49.04;101330.12;143739;611;46019;-72
2021/04/21 04:42:23;;;;;;;11.20;4.20;;;;;;;10.46;48.79;101320.31;143742;565;47012;-71
2021/04/21 04:44:51;;;;;;;12.70;5.22;;;;;;;10.59;48.95;101327.09;143740;599;47022;-70
2021/04/21 04:47:30;;;;;;;10.00;4.28;;;;;;;10.80;48.32;101327.59;143742;619;46010;-70
2021/04/21 04:50:18;;;;;;;11.55;4.12;;;;;;;10.99;46.70;101334.19;143744;570;45020;-69
2021/04/21 04:52:51;;;;;;;11.57;4.87;;;;;;;11.15;47.65;101333.88;143742;564;46011;-70
2021/04/21 04:55:20;;;;;;;19.20;4.72;;;;;;;11.41;47.53;101333.31;143739;572;47020;-70
2021/04/21 04:57:51;;;;;;;13.25;4.50;;;;;;;11.69;47.43;101338.00;143741;586;46018;-69
2021/04/21 05:00:26;;;;;;;15.30;4.82;;;;;;;11.95;46.70;101337.41;143742;614;46010;-70
2021/04/21 05:03:47;;;;;;;25.80;10.48;;;;;;;12.22;45.84;101340.28;143745;577;46010;-70
2021/04/21 05:06:18;;;;;;;14.63;4.93;;;;;;;12.53;45.93;101344.75;143739;626;46908;-70
2021/04/21 05:08:47;;;;;;;12.10;4.60;;;;;;;12.79;46.28;101349.34;143742;627;46010;-72
2021/04/21 05:11:16;;;;;;;17.10;4.22;;;;;;;13.02;46.13;101348.69;143743;586;46010;-71
2021/04/21 05:13:49;;;;;;;15.80;4.72;;;;;;;13.26;45.01;101355.97;143743;599;46018;-71
2021/04/21 05:17:39;;;;;;;12.97;4.20;;;;;;;13.52;44.48;101348.19;143740;571;46018;-71
2021/04/21 05:21:41;;;;;;;10.23;4.20;;;;;;;13.85;43.62;101348.06;143742;566;46018;-71
2021/04/21 05:25:31;;;;;;;8.23;3.60;;;;;;;14.21;43.44;101346.91;143740;655;46021;-72
2021/04/21 05:28:51;;;;;;;10.77;3.20;;;;;;;14.47;42.87;101353.09;143743;703;47010;-70
2021/04/21 05:32:32;;;;;;;7.05;3.67;;;;;;;14.63;42.99;101353.47;143741;717;45911;-69
2021/04/21 05:35:58;;;;;;;7.28;3.83;;;;;;;14.80;42.85;101344.94;143742;727;46010;-69
2021/04/21 05:39:29;;;;;;;10.93;4.70;;;;;;;14.97;43.05;101350.50;143740;583;46021;-69
2021/04/21 05:42:59;;;;;;;12.63;4.85;;;;;;;15.10;42.61;101342.09;143745;610;45018;-67
2021/04/21 05:46:37;;;;;;;9.93;4.53;;;;;;;15.21;42.67;101350.50;143741;696;46013;-69
2021/04/21 05:49:58;;;;;;;11.52;4.85;;;;;;;15.32;41.93;101350.09;143737;663;47010;-70
2021/04/21 05:53:30;;;;;;;13.77;4.55;;;;;;;15.35;42.50;101348.22;143739;678;46010;-70
2021/04/21 05:57:13;;;;;;;12.65;4.57;;;;;;;15.57;42.26;101340.31;143743;604;47012;-69
2021/04/21 06:00:31;;;;;;;7.80;3.45;;;;;;;15.67;41.29;101353.19;143739;730;46020;-70
2021/04/21 06:03:00;;;;;;;10.85;3.03;;;;;;;15.62;41.07;101348.06;143739;604;46012;-69
2021/04/21 06:05:27;;;;;;;7.68;2.87;;;;;;;15.64;41.16;101350.66;143735;635;46020;-69
2021/04/21 06:07:55;;;;;;;8.20;2.83;;;;;;;15.69;41.44;101349.56;143742;607;46010;-69
2021/04/21 06:10:40;;;;;;;6.25;2.60;;;;;;;15.86;41.61;101354.22;143739;723;46020;-71
2021/04/21 06:13:11;;;;;;;5.55;2.50;;;;;;;15.94;40.25;101348.63;143737;604;46018;-70
2021/04/21 06:15:41;;;;;;;6.82;2.50;;;;;;;16.01;39.78;101350.09;143741;602;45021;-71
2021/04/21 06:18:10;;;;;;;5.65;2.25;;;;;;;16.11;40.76;101336.47;143742;588;47012;-71
2021/04/21 06:20:43;;;;;;;8.57;2.80;;;;;;;16.26;40.33;101342.91;143736;592;47012;-71
2021/04/21 06:23:19;;;;;;;6.25;2.30;;;;;;;16.34;39.55;101343.47;143740;636;46010;-72
2021/04/21 06:26:11;;;;;;;4.87;2.08;;;;;;;16.33;39.53;101347.88;143737;612;47012;-71
2021/04/21 06:28:38;;;;;;;5.82;2.47;;;;;;;16.36;39.76;101342.47;143740;566;46019;-71
2021/04/21 06:31:10;;;;;;;6.72;2.37;;;;;;;16.44;38.57;101355.37;143739;746;46909;-70
2021/04/21 06:33:43;;;;;;;6.25;2.20;;;;;;;16.43;38.72;101353.69;143738;614;46010;-71
2021/04/21 06:36:14;;;;;;;5.45;2.45;;;;;;;16.49;39.72;101355.19;143740;612;46011;-69
2021/04/21 06:38:42;;;;;;;5.12;2.25;;;;;;;16.63;39.24;101358.09;143740;651;47012;-70
2021/04/21 06:41:09;;;;;;;10.48;2.47;;;;;;;16.71;38.90;101368.38;143739;699;47022;-70
2021/04/21 06:43:40;;;;;;;3.95;2.00;;;;;;;16.78;37.85;101369.84;143740;596;46013;-71
2021/04/21 06:46:09;;;;;;;5.87;2.12;;;;;;;16.80;38.05;101369.75;143738;592;47012;-70
2021/04/21 06:48:39;;;;;;;3.45;2.05;;;;;;;16.80;36.58;101373.31;143741;579;47012;-71
2021/04/21 06:51:14;;;;;;;4.25;2.42;;;;;;;16.78;38.63;101376.94;143740;565;46012;-72
2021/04/21 06:53:44;;;;;;;6.65;2.55;;;;;;;16.83;38.21;101377.59;143737;611;46018;-71
2021/04/21 06:56:11;;;;;;;6.28;2.62;;;;;;;16.94;38.38;101385.13;143740;634;46012;-69
2021/04/21 06:58:40;;;;;;;6.40;2.53;;;;;;;17.03;37.35;101382.03;143742;586;46011;-69
2021/04/21 07:01:16;;;;;;;5.22;2.40;;;;;;;17.01;37.92;101383.91;143735;592;46021;-69
2021/04/21 07:03:44;;;;;;;3.45;2.00;;;;;;;16.97;36.55;101377.03;143741;632;45577;-69
2021/04/21 07:06:13;;;;;;;3.42;2.05;;;;;;;16.92;36.19;101386.06;143739;590;46011;-70
2021/04/21 07:08:40;;;;;;;4.82;2.22;;;;;;;17.00;36.82;101384.84;143743;606;46010;-70
2021/04/21 07:11:10;;;;;;;7.95;2.10;;;;;;;17.07;37.05;101395.12;143739;627;46908;-69
2021/04/21 07:13:58;;;;;;;3.40;2.00;;;;;;;17.13;35.68;101390.44;143739;622;46917;-69
2021/04/21 07:16:29;;;;;;;4.50;2.10;;;;;;;17.20;36.93;101394.56;143739;581;46021;-72
2021/04/21 07:19:04;;;;;;;3.87;2.10;;;;;;;17.27;35.94;101393.34;143739;579;46018;-72
2021/04/21 07:21:33;;;;;;;7.68;1.95;;;;;;;17.32;35.73;101403.75;143736;570;46014;-70
2021/04/21 07:24:03;;;;;;;4.30;1.80;;;;;;;17.36;35.14;101395.59;143737;572;46012;-72
2021/04/21 07:26:43;;;;;;;5.25;1.70;;;;;;;17.47;36.76;101408.38;143741;563;46012;-71
2021/04/21 07:29:22;;;;;;;8.65;1.80;;;;;;;17.61;36.53;101402.44;143742;571;46032;-68
2021/04/21 07:31:50;;;;;;;6.03;1.75;;;;;;;17.67;36.30;101409.25;143740;720;46023;-68
2021/04/21 07:34:35;;;;;;;3.67;2.00;;;;;;;17.76;37.12;101409.66;143740;657;46012;-68
2021/04/21 07:37:03;;;;;;;3.80;1.80;;;;;;;17.94;36.97;101412.44;143741;628;45021;-68
2021/04/21 07:39:43;;;;;;;5.57;2.00;;;;;;;18.10;36.63;101413.41;143740;588;47012;-68
2021/04/21 07:42:19;;;;;;;3.45;1.70;;;;;;;18.18;35.65;101414.81;143739;595;46027;-68
2021/04/21 07:44:53;;;;;;;5.75;1.90;;;;;;;18.19;35.60;101408.56;143741;702;46010;-68
2021/04/21 07:47:23;;;;;;;5.75;1.60;;;;;;;18.29;37.27;101406.31;143736;570;47010;-69
2021/04/21 07:50:02;;;;;;;4.18;1.67;;;;;;;18.42;35.79;101416.25;143742;564;46016;-68
2021/04/21 07:52:34;;;;;;;3.15;1.70;;;;;;;18.47;35.43;101415.19;143738;585;46018;-68
2021/04/21 07:55:33;;;;;;;4.40;1.75;;;;;;;18.48;34.36;101400.94;143739;565;46010;-68
2021/04/21 07:58:06;;;;;;;3.90;1.60;;;;;;;18.55;34.86;101403.22;143741;573;46012;-67
2021/04/21 08:00:34;;;;;;;4.82;1.70;;;;;;;18.67;34.33;101398.22;143742;601;46010;-68
2021/04/21 08:03:03;;;;;;;4.30;1.87;;;;;;;18.71;34.63;101400.66;143738;571;46022;-67
2021/04/21 08:05:31;;;;;;;3.65;1.90;;;;;;;18.76;35.38;101403.91;143740;710;46013;-67
2021/04/21 08:08:01;;;;;;;2.90;1.80;;;;;;;18.96;34.96;101411.84;143741;575;46031;-68
2021/04/21 08:10:35;;;;;;;2.92;1.70;;;;;;;19.07;33.09;101396.19;143739;566;46018;-68
2021/04/21 08:13:03;;;;;;;;;;;;;;;19.10;34.00;101398.69;143746;974;46012;-68
2021/04/21 08:15:36;;;;;;;2.30;1.40;;;;;;;19.10;34.02;101404.84;143750;569;46018;-67
2021/04/21 08:18:32;;;;;;;4.18;1.65;;;;;;;19.19;36.88;101407.97;143740;588;47008;-67
2021/04/21 08:20:59;;;;;;;3.55;1.62;;;;;;;19.24;33.54;101401.44;143743;767;46010;-68
2021/04/21 08:23:26;;;;;;;2.72;1.75;;;;;;;19.40;34.47;101405.97;143737;566;47023;-68
2021/04/21 08:25:53;;;;;;;18.95;5.40;;;;;;;19.58;33.82;101407.63;143739;589;46008;-68
2021/04/21 08:28:25;;;;;;;3.80;1.80;;;;;;;19.73;32.62;101411.22;143740;591;46019;-69
2021/04/21 08:31:00;;;;;;;2.87;1.62;;;;;;;19.75;33.16;101408.47;143741;689;46018;-70
2021/04/21 08:33:29;;;;;;;3.83;1.70;;;;;;;19.77;32.05;101412.78;143739;573;46018;-68
2021/04/21 08:35:56;;;;;;;4.35;1.90;;;;;;;19.85;33.56;101408.88;143738;603;47008;-68
2021/04/21 08:38:23;;;;;;;4.07;1.70;;;;;;;19.99;32.84;101403.63;143738;576;46021;-69
2021/04/21 08:40:50;;;;;;;3.22;1.55;;;;;;;20.09;31.55;101406.63;143738;632;48010;-69
2021/04/21 08:43:21;;;;;;;4.43;1.50;;;;;;;20.08;32.16;101411.09;143740;613;46011;-68
2021/04/21 08:45:48;;;;;;;3.10;1.37;;;;;;;20.10;30.58;101403.00;143741;603;46008;-69
2021/04/21 08:48:16;;;;;;;4.70;1.65;;;;;;;20.14;31.78;101404.56;143741;590;46010;-69
2021/04/21 08:50:45;;;;;;;5.55;1.75;;;;;;;20.23;32.21;101414.69;143740;623;46018;-69
2021/04/21 08:53:13;;;;;;;4.55;1.70;;;;;;;20.38;31.56;101398.72;143736;571;46021;-69
2021/04/21 08:55:41;;;;;;;3.25;1.70;;;;;;;20.47;31.75;101390.19;143739;568;46010;-69
2021/04/21 08:58:09;;;;;;;7.35;1.30;;;;;;;20.50;30.33;101400.69;143741;593;46010;-70
2021/04/21 09:00:39;;;;;;;3.72;1.40;;;;;;;20.51;30.02;101393.56;143740;598;47010;-68
2021/04/21 09:03:06;;;;;;;2.50;1.30;;;;;;;20.51;31.10;101391.72;143735;577;47022;-70
2021/04/21 09:05:33;;;;;;;5.78;1.70;;;;;;;20.55;30.70;101387.09;143742;613;46008;-69
2021/04/21 09:08:02;;;;;;;2.12;1.40;;;;;;;20.34;30.06;101384.75;143740;665;46010;-69
2021/04/21 09:10:31;;;;;;;3.20;1.40;;;;;;;20.33;31.09;101392.84;143741;619;46016;-69
2021/04/21 09:12:58;;;;;;;3.75;1.50;;;;;;;20.43;31.49;101389.50;143740;657;46011;-69
2021/04/21 09:15:25;;;;;;;2.97;1.55;;;;;;;20.62;32.30;101380.44;143740;564;46010;-69
2021/04/21 09:17:56;;;;;;;3.92;1.60;;;;;;;20.77;31.03;101384.88;143739;576;47008;-70
2021/04/21 09:20:27;;;;;;;4.75;1.50;;;;;;;20.93;30.60;101387.47;143740;598;46018;-70
2021/04/21 09:23:14;;;;;;;3.67;1.40;;;;;;;21.03;33.04;101384.25;143739;583;46033;-69
2021/04/21 09:25:54;;;;;;;3.17;1.30;;;;;;;21.04;32.04;101378.81;143738;572;46018;-69
2021/04/21 09:28:24;;;;;;;2.62;1.50;;;;;;;21.09;32.15;101382.06;143738;630;46008;-69
2021/04/21 09:30:58;;;;;;;3.78;1.30;;;;;;;21.13;30.87;101372.91;143740;615;47010;-70
2021/04/21 09:33:30;;;;;;;3.30;1.42;;;;;;;21.12;30.01;101367.66;143740;593;46010;-69
2021/04/21 09:35:58;;;;;;;2.50;1.40;;;;;;;21.21;30.58;101379.56;143742;591;45019;-68
2021/04/21 09:38:29;;;;;;;2.42;1.40;;;;;;;21.33;30.87;101373.47;143741;655;46021;-68
2021/04/21 09:41:01;;;;;;;5.75;1.50;;;;;;;21.43;30.17;101368.38;143740;586;46008;-69
2021/04/21 09:43:33;;;;;;;4.90;2.00;;;;;;;21.54;30.79;101375.75;143740;679;46010;-69
2021/04/21 09:46:19;;;;;;;5.32;1.67;;;;;;;21.64;31.27;101360.84;143739;569;46018;-69
2021/04/21 09:48:47;;;;;;;4.15;1.60;;;;;;;21.67;30.07;101355.31;143739;607;46020;-68
2021/04/21 09:51:19;;;;;;;3.75;1.60;;;;;;;21.74;30.81;101361.97;143741;577;47010;-69
2021/04/21 09:53:51;;;;;;;2.62;1.45;;;;;;;21.83;28.79;101351.63;143739;563;46010;-69
2021/04/21 09:56:26;;;;;;;9.98;1.62;;;;;;;21.85;29.23;101347.06;143741;671;46008;-68
2021/04/21 09:58:58;;;;;;;2.65;1.45;;;;;;;21.88;28.66;101360.22;143741;564;46008;-69
2021/04/21 10:01:43;;;;;;;2.67;1.20;;;;;;;21.98;30.93;101350.62;143743;635;46008;-69
2021/04/21 10:04:21;;;;;;;2.35;1.30;;;;;;;21.97;30.59;101356.94;143740;638;46022;-69
2021/04/21 10:06:54;;;;;;;7.05;1.50;;;;;;;22.01;29.01;101361.12;143740;640;46019;-68
2021/04/21 10:09:39;;;;;;;3.20;1.50;;;;;;;22.11;32.85;101356.00;143738;594;46020;-70
2021/04/21 10:12:29;;;;;;;2.92;1.37;;;;;;;22.19;32.05;101352.84;143740;635;46018;-69
2021/04/21 10:15:30;;;;;;;2.70;1.42;;;;;;;22.28;31.02;101341.50;143739;563;46012;-70
2021/04/21 10:17:57;;;;;;;3.25;1.45;;;;;;;22.28;27.42;101344.16;143739;569;46010;-69
2021/04/21 10:20:24;;;;;;;4.87;1.58;;;;;;;22.29;27.24;101341.41;143739;605;46020;-69
2021/04/21 10:22:52;;;;;;;5.35;1.30;;;;;;;22.31;28.39;101327.94;143740;593;47018;-69
2021/04/21 10:25:19;;;;;;;4.78;1.30;;;;;;;22.41;29.18;101336.22;143740;611;46018;-70
2021/04/21 10:27:46;;;;;;;8.18;1.40;;;;;;;22.55;29.49;101341.47;143739;579;46008;-69
2021/04/21 10:30:14;;;;;;;4.07;1.40;;;;;;;22.70;27.35;101341.38;143738;588;47008;-69
2021/04/21 10:32:41;;;;;;;4.57;1.40;;;;;;;22.75;28.65;101334.75;143741;584;46025;-69
2021/04/21 10:35:09;;;;;;;3.85;1.50;;;;;;;22.84;28.68;101335.06;143739;613;46010;-69
2021/04/21 10:37:41;;;;;;;3.42;1.42;;;;;;;22.90;29.37;101323.94;143741;571;46008;-69
2021/04/21 10:42:50;;;;;;;6.07;1.50;;;;;;;23.15;29.59;101331.97;143741;593;46009;-76
2021/04/21 10:45:26;;;;;;;5.07;1.40;;;;;;;23.17;28.08;101325.63;143739;582;46018;-71
2021/04/21 10:47:56;;;;;;;3.08;1.70;;;;;;;23.17;28.58;101321.16;143740;563;46010;-69
2021/04/21 10:50:45;;;;;;;3.90;1.40;;;;;;;23.14;30.50;101319.53;143740;564;46021;-69
2021/04/21 10:53:46;;;;;;;2.50;1.10;;;;;;;23.05;31.40;101316.62;143741;596;47010;-69
2021/04/21 10:56:23;;;;;;;4.80;1.50;;;;;;;22.94;28.95;101309.38;143739;563;46909;-71
2021/04/21 10:58:59;;;;;;;2.83;1.40;;;;;;;22.94;27.66;101299.50;143741;572;45018;-70
2021/04/21 11:01:37;;;;;;;3.90;1.40;;;;;;;22.98;29.53;101308.19;143740;563;46008;-72
2021/04/21 11:04:06;;;;;;;5.40;1.48;;;;;;;23.08;29.69;101311.06;143741;618;46008;-72
2021/04/21 11:06:59;;;;;;;3.50;1.48;;;;;;;23.13;32.01;101292.88;143738;642;46018;-70
2021/04/21 11:09:55;;;;;;;5.85;1.58;;;;;;;23.25;31.58;101301.81;143741;563;46010;-71
2021/04/21 11:12:53;;;;;;;4.07;1.42;;;;;;;23.31;31.89;101310.28;143737;597;46020;-70
2021/04/21 11:15:56;;;;;;;2.53;1.30;;;;;;;23.43;29.91;101300.50;143742;614;47010;-71
2021/04/21 11:18:30;;;;;;;3.37;1.20;;;;;;;23.44;28.66;101310.25;143739;591;46022;-71
2021/04/21 11:21:12;;;;;;;2.30;1.20;;;;;;;23.52;29.96;101306.16;143737;579;48010;-70
2021/04/21 11:24:10;;;;;;;2.65;1.40;;;;;;;23.54;31.07;101301.53;143739;641;46020;-70
2021/04/21 11:26:44;;;;;;;4.25;1.40;;;;;;;23.54;27.94;101298.84;143742;612;46017;-70
2021/04/21 11:29:31;;;;;;;3.12;1.20;;;;;;;23.56;27.40;101302.28;143740;602;46012;-70
2021/04/21 11:32:17;;;;;;;2.55;1.25;;;;;;;23.65;30.56;101298.91;143741;621;46008;-70
2021/04/21 11:34:44;;;;;;;2.40;1.30;;;;;;;23.65;27.49;101302.44;143742;589;46010;-70
2021/04/21 11:37:23;;;;;;;6.68;1.40;;;;;;;23.72;30.22;101291.28;143744;622;46008;-71
2021/04/21 11:39:56;;;;;;;3.72;1.30;;;;;;;23.78;27.31;101283.63;143739;626;46018;-70
2021/04/21 11:42:46;;;;;;;3.90;1.42;;;;;;;23.82;31.34;101289.59;143737;628;47010;-70
2021/04/21 11:45:37;;;;;;;2.92;1.15;;;;;;;23.85;28.35;101289.38;143742;622;45021;-70
2021/04/21 11:48:25;;;;;;;2.47;1.12;;;;;;;23.60;26.00;101285.84;143742;680;46008;-71
2021/04/21 11:50:52;;;;;;;3.22;1.10;;;;;;;23.23;25.52;101280.50;143740;577;46023;-70
2021/04/21 11:53:25;;;;;;;2.55;1.37;;;;;;;23.05;28.25;101284.50;143739;620;46914;-70
2021/04/21 11:55:57;;;;;;;2.15;1.10;;;;;;;23.11;27.18;101271.53;143740;644;46020;-70
2021/04/21 11:58:34;;;;;;;4.10;1.03;;;;;;;23.26;29.10;101280.28;143740;639;46019;-69
2021/04/21 12:01:07;;;;;;;1.83;1.00;;;;;;;23.39;26.60;101277.56;143738;565;46018;-70
2021/04/21 12:03:40;;;;;;;3.95;1.10;;;;;;;23.38;28.06;101264.31;143739;623;46018;-70
2021/04/21 12:06:16;;;;;;;6.97;1.20;;;;;;;23.38;26.82;101264.31;143739;589;47008;-71
2021/04/21 12:08:53;;;;;;;4.62;1.20;;;;;;;23.46;28.73;101261.91;143744;589;46008;-70
2021/04/21 12:11:26;;;;;;;2.90;1.20;;;;;;;23.55;27.81;101255.00;143739;574;46013;-70
2021/04/21 12:13:53;;;;;;;1.65;1.17;;;;;;;23.28;28.43;101269.47;143741;564;46018;-71
2021/04/21 12:16:27;;;;;;;2.12;1.20;;;;;;;22.69;29.73;101257.56;143741;565;46010;-70
2021/04/21 12:18:56;;;;;;;2.50;1.30;;;;;;;22.25;29.04;101259.69;143744;631;45020;-71
2021/04/21 12:21:32;;;;;;;2.90;1.20;;;;;;;21.92;30.46;101265.50;143739;570;46021;-70
2021/04/21 12:24:02;;;;;;;2.80;1.30;;;;;;;21.45;31.69;101276.50;143740;604;46010;-70
2021/04/21 12:26:50;;;;;;;4.43;1.40;;;;;;;21.16;34.77;101280.19;143739;593;47032;-70
2021/04/21 12:29:19;;;;;;;4.20;1.35;;;;;;;20.95;33.75;101278.81;143738;570;48006;-70
2021/04/21 12:31:46;;;;;;;4.47;1.30;;;;;;;20.75;32.62;101271.16;143737;577;46018;-70